sensor_id;sensor_type;location;lat;lon;timestamp;pressure;altitude;pressure_sealevel;temperature;humidity
31011;BME280;26395;53.412;19.598;2022-08-21T00:03:32;100016.05;;;22.81;100.00
31011;BME280;26395;53.412;19.598;2022-08-21T00:18:36;99995.90;;;22.69;100.00
31011;BME280;26395;53.412;19.598;2022-08-21T00:33:39;99970.04;;;22.69;100.00
31011;BME280;26395;53.412;19.598;2022-08-21T00:48:42;99938.48;;;22.68;100.00
31011;BME280;26395;53.412;19.598;2022-08-21T01:03:46;99923.76;;;22.69;100.00
31011;BME280;26395;53.412;19.598;2022-08-21T01:18:52;99912.07;;;22.76;100.00
31011;BME280;26395;53.412;19.598;2022-08-21T01:33:56;99919.51;;;22.78;100.00
31011;BME280;26395;53.412;19.598;2022-08-21T01:48:59;99935.34;;;22.77;100.00
31011;BME280;26395;53.412;19.598;2022-08-21T02:04:03;99928.51;;;22.78;100.00
31011;BME280;26395;53.412;19.598;2022-08-21T02:19:07;99936.06;;;22.75;100.00
31011;BME280;26395;53.412;19.598;2022-08-21T02:34:10;99946.99;;;22.73;100.00
31011;BME280;26395;53.412;19.598;2022-08-21T02:49:13;99942.55;;;22.76;100.00
31011;BME280;26395;53.412;19.598;2022-08-21T03:04:16;99937.26;;;22.65;100.00
31011;BME280;26395;53.412;19.598;2022-08-21T03:19:19;99936.03;;;22.61;100.00
31011;BME280;26395;53.412;19.598;2022-08-21T03:34:23;99937.72;;;22.53;100.00
31011;BME280;26395;53.412;19.598;2022-08-21T03:49:27;99946.73;;;22.49;100.00
31011;BME280;26395;53.412;19.598;2022-08-21T04:04:30;99948.54;;;22.56;100.00
31011;BME280;26395;53.412;19.598;2022-08-21T04:19:34;99957.02;;;22.55;100.00
31011;BME280;26395;53.412;19.598;2022-08-21T04:34:37;99961.77;;;22.62;100.00
31011;BME280;26395;53.412;19.598;2022-08-21T04:49:41;99983.36;;;22.73;100.00
31011;BME280;26395;53.412;19.598;2022-08-21T05:04:50;99996.73;;;22.89;100.00
31011;BME280;26395;53.412;19.598;2022-08-21T05:19:54;100011.11;;;23.16;100.00
31011;BME280;26395;53.412;19.598;2022-08-21T05:34:57;100000.49;;;23.40;100.00
31011;BME280;26395;53.412;19.598;2022-08-21T05:50:01;100000.53;;;23.69;100.00
31011;BME280;26395;53.412;19.598;2022-08-21T06:05:04;100005.73;;;24.10;100.00
31011;BME280;26395;53.412;19.598;2022-08-21T06:20:09;100004.76;;;24.78;100.00
31011;BME280;26395;53.412;19.598;2022-08-21T06:35:13;100002.45;;;25.67;100.00
31011;BME280;26395;53.412;19.598;2022-08-21T06:50:16;99986.41;;;26.39;100.00
31011;BME280;26395;53.412;19.598;2022-08-21T07:05:19;99969.02;;;26.74;100.00
31011;BME280;26395;53.412;19.598;2022-08-21T07:20:22;99975.83;;;27.33;100.00
31011;BME280;26395;53.412;19.598;2022-08-21T07:35:26;99981.94;;;27.70;100.00
31011;BME280;26395;53.412;19.598;2022-08-21T07:50:30;99982.79;;;28.25;100.00
31011;BME280;26395;53.412;19.598;2022-08-21T08:05:33;99983.11;;;27.87;100.00
31011;BME280;26395;53.412;19.598;2022-08-21T08:20:40;99980.96;;;28.89;100.00
31011;BME280;26395;53.412;19.598;2022-08-21T08:35:46;99975.15;;;29.78;99.79
31011;BME280;26395;53.412;19.598;2022-08-21T08:50:55;99970.46;;;30.22;97.62
31011;BME280;26395;53.412;19.598;2022-08-21T09:37:17;99964.02;;;30.73;88.15
31011;BME280;26395;53.412;19.598;2022-08-21T09:52:24;99962.96;;;31.85;84.82
31011;BME280;26395;53.412;19.598;2022-08-21T10:07:29;99955.58;;;32.35;80.64
31011;BME280;26395;53.412;19.598;2022-08-21T10:54:16;99946.29;;;32.30;78.56
31011;BME280;26395;53.412;19.598;2022-08-21T11:09:26;99950.06;;;31.84;80.04
31011;BME280;26395;53.412;19.598;2022-08-21T11:24:35;99947.27;;;31.41;80.47
31011;BME280;26395;53.412;19.598;2022-08-21T11:39:52;99951.53;;;31.10;81.06
31011;BME280;26395;53.412;19.598;2022-08-21T11:55:07;99951.39;;;30.92;81.36
31011;BME280;26395;53.412;19.598;2022-08-21T12:10:18;99944.14;;;31.04;81.66
31011;BME280;26395;53.412;19.598;2022-08-21T12:25:24;99932.27;;;31.03;80.35
31011;BME280;26395;53.412;19.598;2022-08-21T12:40:43;99926.93;;;31.63;80.29
31011;BME280;26395;53.412;19.598;2022-08-21T12:55:49;99929.91;;;31.69;78.90
31011;BME280;26395;53.412;19.598;2022-08-21T13:11:01;99937.67;;;30.60;81.43
31011;BME280;26395;53.412;19.598;2022-08-21T13:26:21;99934.42;;;30.08;85.82
31011;BME280;26395;53.412;19.598;2022-08-21T13:41:27;99946.77;;;29.90;87.80
31011;BME280;26395;53.412;19.598;2022-08-21T13:56:42;99954.24;;;29.24;90.60
31011;BME280;26395;53.412;19.598;2022-08-21T14:11:46;99957.46;;;28.79;93.33
31011;BME280;26395;53.412;19.598;2022-08-21T14:26:52;99970.56;;;28.10;95.02
31011;BME280;26395;53.412;19.598;2022-08-21T14:41:57;99967.84;;;27.32;97.68
31011;BME280;26395;53.412;19.598;2022-08-21T14:57:05;99979.62;;;26.66;99.95
31011;BME280;26395;53.412;19.598;2022-08-21T15:12:09;99990.92;;;26.12;100.00
31011;BME280;26395;53.412;19.598;2022-08-21T15:27:17;99995.92;;;25.88;100.00
31011;BME280;26395;53.412;19.598;2022-08-21T15:42:21;100017.48;;;25.23;100.00
31011;BME280;26395;53.412;19.598;2022-08-21T15:57:25;100025.71;;;24.43;100.00
31011;BME280;26395;53.412;19.598;2022-08-21T16:12:31;100012.45;;;24.03;100.00
31011;BME280;26395;53.412;19.598;2022-08-21T16:27:36;100033.14;;;24.00;100.00
31011;BME280;26395;53.412;19.598;2022-08-21T16:42:42;100035.55;;;23.81;100.00
31011;BME280;26395;53.412;19.598;2022-08-21T16:57:47;100039.85;;;23.65;100.00
31011;BME280;26395;53.412;19.598;2022-08-21T17:12:55;100056.66;;;23.53;100.00
31011;BME280;26395;53.412;19.598;2022-08-21T17:28:01;100065.80;;;23.36;100.00
31011;BME280;26395;53.412;19.598;2022-08-21T17:43:10;100088.46;;;23.35;100.00
31011;BME280;26395;53.412;19.598;2022-08-21T17:58:15;100102.97;;;23.30;100.00
31011;BME280;26395;53.412;19.598;2022-08-21T18:13:23;100115.02;;;23.14;100.00
31011;BME280;26395;53.412;19.598;2022-08-21T18:28:29;100128.06;;;22.94;100.00
31011;BME280;26395;53.412;19.598;2022-08-21T18:43:34;100120.34;;;22.71;100.00
31011;BME280;26395;53.412;19.598;2022-08-21T18:58:38;100127.23;;;22.34;100.00
31011;BME280;26395;53.412;19.598;2022-08-21T19:13:42;100136.04;;;22.11;100.00
31011;BME280;26395;53.412;19.598;2022-08-21T19:28:49;100152.15;;;21.96;100.00
31011;BME280;26395;53.412;19.598;2022-08-21T19:43:56;100169.11;;;21.76;100.00
31011;BME280;26395;53.412;19.598;2022-08-21T19:59:00;100166.65;;;21.71;100.00
31011;BME280;26395;53.412;19.598;2022-08-21T20:14:13;100155.54;;;21.63;100.00
31011;BME280;26395;53.412;19.598;2022-08-21T20:29:19;100171.42;;;21.42;100.00
31011;BME280;26395;53.412;19.598;2022-08-21T20:44:42;100160.54;;;21.54;100.00
31011;BME280;26395;53.412;19.598;2022-08-21T21:00:04;100160.29;;;21.48;100.00
31011;BME280;26395;53.412;19.598;2022-08-21T21:15:27;100176.29;;;21.35;100.00
31011;BME280;26395;53.412;19.598;2022-08-21T21:30:35;100169.56;;;21.15;100.00
31011;BME280;26395;53.412;19.598;2022-08-21T22:01:15;100189.82;;;21.19;100.00
31011;BME280;26395;53.412;19.598;2022-08-21T22:16:21;100183.56;;;20.73;100.00
31011;BME280;26395;53.412;19.598;2022-08-21T22:31:30;100187.44;;;20.40;100.00
31011;BME280;26395;53.412;19.598;2022-08-21T22:46:52;100188.60;;;20.25;100.00
31011;BME280;26395;53.412;19.598;2022-08-21T23:02:26;100194.17;;;20.13;100.00
31011;BME280;26395;53.412;19.598;2022-08-21T23:17:50;100193.39;;;20.10;100.00
31011;BME280;26395;53.412;19.598;2022-08-21T23:48:36;100194.02;;;19.83;100.00
